Time;durP1;ratioP1;P1;durP2;ratioP2;P2;SDS_P1;SDS_P2;PMS_P1;PMS_P2;Temp;Humidity;BMP_temperature;BMP_pressure;BME280_temperature;BME280_humidity;BME280_pressure;Samples;Min_cycle;Max_cycle;Signal;HPM_P1;HPM_P2
2023/11/01 00:01:39;;;;;;;;;;;;;;;9.10;80.72;99725.33;106315;1257;61256;-84
2023/11/01 00:04:07;;;;;;;;;;;;;;;9.08;80.54;99735.80;106156;1257;124927;-84
2023/11/01 00:06:33;;;;;;;;;;;;;;;9.04;80.18;99733.99;106179;1257;65002;-86
2023/11/01 00:09:00;;;;;;;;;;;;;;;9.00;80.08;99738.30;106123;1264;72709;-85
2023/11/01 00:11:26;;;;;;;;;;;;;;;8.95;79.82;99744.52;106221;1261;125674;-85
2023/11/01 00:13:53;;;;;;;;;;;;;;;8.89;79.50;99750.90;106293;1258;61392;-84
2023/11/01 00:16:20;;;;;;;;;;;;;;;8.83;79.52;99759.21;106200;1262;124424;-84
2023/11/01 00:18:46;;;;;;;;;;;;;;;8.79;79.56;99766.14;106374;1263;66317;-85
2023/11/01 00:21:13;;;;;;;;;;;;;;;8.77;79.49;99772.75;106280;1259;72689;-82
2023/11/01 00:23:39;;;;;;;;;;;;;;;8.74;79.46;99772.70;106237;1257;124841;-83
2023/11/01 00:26:06;;;;;;;;;;;;;;;8.74;79.42;99782.15;106483;1258;60151;-82
2023/11/01 00:28:33;;;;;;;;;;;;;;;8.73;79.33;99793.85;106322;1259;124591;-83
2023/11/01 00:31:00;;;;;;;;;;;;;;;8.73;79.24;99799.80;106585;1258;65027;-83
2023/11/01 00:33:27;;;;;;;;;;;;;;;8.72;79.17;99800.13;106298;1262;72577;-84
2023/11/01 00:35:53;;;;;;;;;;;;;;;8.71;79.03;99804.13;106204;1259;124612;-85
2023/11/01 00:38:23;;;;;;;;;;;;;;;8.67;79.01;99813.00;106191;1262;61257;-86
2023/11/01 00:40:50;;;;;;;;;;;;;;;8.65;79.12;99811.21;106088;1258;124727;-85
2023/11/01 00:43:17;;;;;;;;;;;;;;;8.65;78.99;99814.71;106283;1259;65114;-85
2023/11/01 00:45:43;;;;;;;;;;;;;;;8.64;78.86;99821.86;106305;1262;72798;-86
2023/11/01 00:48:10;;;;;;;;;;;;;;;8.63;78.83;99826.23;106330;1258;61361;-86
2023/11/01 00:50:36;;;;;;;;;;;;;;;8.61;78.62;99825.30;106313;1258;61260;-86
2023/11/01 00:53:03;;;;;;;;;;;;;;;8.58;78.63;99838.72;106194;1258;124020;-86
2023/11/01 00:55:29;;;;;;;;;;;;;;;8.56;78.59;99844.45;106227;1258;66654;-85
2023/11/01 00:57:56;;;;;;;;;;;;;;;8.53;78.40;99852.98;106065;1258;124073;-84
2023/11/01 01:00:23;;;;;;;;;;;;;;;8.53;78.49;99858.03;106115;1258;61328;-84
2023/11/01 01:02:50;;;;;;;;;;;;;;;8.52;78.43;99863.80;106189;1262;61159;-84
2023/11/01 01:05:17;;;;;;;;;;;;;;;8.53;78.47;99866.25;106190;1263;124644;-84
2023/11/01 01:07:43;;;;;;;;;;;;;;;8.53;78.44;99870.46;106194;1258;65582;-85
2023/11/01 01:10:10;;;;;;;;;;;;;;;8.56;78.54;99875.58;105946;1264;125035;-84
2023/11/01 01:12:37;;;;;;;;;;;;;;;8.57;78.44;99876.99;105986;1258;59437;-84
2023/11/01 01:15:03;;;;;;;;;;;;;;;8.56;78.26;99881.01;106205;1263;61188;-84
2023/11/01 01:17:30;;;;;;;;;;;;;;;8.54;78.17;99885.88;106000;1260;124741;-86
2023/11/01 01:19:57;;;;;;;;;;;;;;;8.52;78.23;99887.05;106437;1257;65019;-86
2023/11/01 01:22:24;;;;;;;;;;;;;;;8.53;78.08;99886.88;106090;1263;124916;-86
2023/11/01 01:24:50;;;;;;;;;;;;;;;8.52;78.08;99886.17;106328;1262;61203;-86
2023/11/01 01:27:18;;;;;;;;;;;;;;;8.52;78.12;99888.09;106317;1261;61266;-86
2023/11/01 01:29:45;;;;;;;;;;;;;;;8.50;78.05;99888.74;106238;1263;124637;-85
2023/11/01 01:32:11;;;;;;;;;;;;;;;8.49;78.06;99890.65;106291;1259;61148;-86
2023/11/01 01:34:38;;;;;;;;;;;;;;;8.49;77.97;99894.34;106120;1259;124188;-87
2023/11/01 01:37:04;;;;;;;;;;;;;;;8.48;77.87;99895.52;106162;1259;61869;-86
2023/11/01 01:39:31;;;;;;;;;;;;;;;8.47;77.88;99897.79;106208;1258;61784;-85
2023/11/01 01:41:57;;;;;;;;;;;;;;;8.46;77.85;99903.38;106163;1259;125235;-85
2023/11/01 01:44:24;;;;;;;;;;;;;;;8.44;77.65;99906.29;106349;1258;64678;-85
2023/11/01 01:46:50;;;;;;;;;;;;;;;8.41;77.63;99914.06;106452;1262;125605;-85
2023/11/01 01:49:17;;;;;;;;;;;;;;;8.37;77.54;99917.50;106200;1259;61308;-86
2023/11/01 01:51:43;;;;;;;;;;;;;;;8.35;77.57;99922.16;106189;1259;61227;-86
2023/11/01 01:54:10;;;;;;;;;;;;;;;8.33;77.45;99921.41;106347;1257;73803;-86
2023/11/01 01:56:37;;;;;;;;;;;;;;;8.30;77.39;99923.63;106040;1257;65053;-86
2023/11/01 01:59:03;;;;;;;;;;;;;;;8.26;77.27;99926.52;106131;1258;124673;-86
2023/11/01 02:01:31;;;;;;;;;;;;;;;8.21;77.05;99924.49;106181;1258;61277;-86
2023/11/01 02:03:58;;;;;;;;;;;;;;;8.15;77.18;99931.88;105991;1260;124966;-85
2023/11/01 02:06:24;;;;;;;;;;;;;;;8.07;76.83;99935.20;106260;1261;72399;-85
2023/11/01 02:08:51;;;;;;;;;;;;;;;7.98;76.86;99933.60;106005;1264;61259;-85
2023/11/01 02:11:17;;;;;;;;;;;;;;;7.88;76.83;99935.64;106114;1259;124392;-84
2023/11/01 02:13:44;;;;;;;;;;;;;;;7.78;76.80;99937.87;106315;1259;61287;-85
2023/11/01 02:16:11;;;;;;;;;;;;;;;7.67;76.79;99938.48;106262;1258;124242;-84
2023/11/01 02:18:38;;;;;;;;;;;;;;;7.54;76.63;99945.33;106279;1259;74533;-85
2023/11/01 02:21:05;;;;;;;;;;;;;;;7.43;76.90;99948.39;106307;1259;64748;-85
2023/11/01 02:23:34;;;;;;;;;;;;;;;7.36;76.91;99956.75;106298;1259;124609;-85
2023/11/01 02:26:01;;;;;;;;;;;;;;;7.30;76.89;99960.08;106183;1259;61176;-84
2023/11/01 02:28:28;;;;;;;;;;;;;;;7.22;76.86;99963.91;106298;1257;125168;-84
2023/11/01 02:30:54;;;;;;;;;;;;;;;7.15;76.97;99973.52;106361;1258;74728;-85
2023/11/01 02:33:21;;;;;;;;;;;;;;;7.07;76.87;99978.52;106318;1259;64943;-85
2023/11/01 02:35:48;;;;;;;;;;;;;;;6.97;76.80;99977.05;106135;1261;124823;-85
2023/11/01 02:38:14;;;;;;;;;;;;;;;6.90;76.86;99981.20;106474;1259;61246;-85
2023/11/01 02:40:41;;;;;;;;;;;;;;;6.82;76.92;99986.21;106207;1258;123897;-84
2023/11/01 02:43:07;;;;;;;;;;;;;;;6.76;76.97;99992.50;106440;1257;74769;-85
2023/11/01 02:45:34;;;;;;;;;;;;;;;6.70;77.10;100000.52;106240;1259;64988;-85
2023/11/01 02:48:01;;;;;;;;;;;;;;;6.66;77.26;100003.38;106246;1259;124331;-86
2023/11/01 02:50:28;;;;;;;;;;;;;;;6.67;77.32;100012.98;106430;1257;61140;-85
2023/11/01 02:52:54;;;;;;;;;;;;;;;6.67;77.43;100014.21;106273;1264;123945;-85
2023/11/01 02:55:21;;;;;;;;;;;;;;;6.68;77.46;100020.52;106341;1259;74743;-85
2023/11/01 02:57:48;;;;;;;;;;;;;;;6.68;77.59;100019.33;106100;1262;124500;-85
2023/11/01 03:00:18;;;;;;;;;;;;;;;6.69;77.49;100014.45;106372;1259;73030;-85
2023/11/01 03:02:46;;;;;;;;;;;;;;;6.68;77.43;100020.01;106300;1259;59254;-84
2023/11/01 03:05:13;;;;;;;;;;;;;;;6.68;77.47;100021.38;106228;1259;124819;-85
2023/11/01 03:07:40;;;;;;;;;;;;;;;6.71;77.51;100026.19;106264;1259;74697;-85
2023/11/01 03:10:08;;;;;;;;;;;;;;;6.79;77.64;100024.50;106125;1258;125068;-85
2023/11/01 03:12:37;;;;;;;;;;;;;;;6.88;77.55;100024.05;106179;1262;71672;-85
2023/11/01 03:15:07;;;;;;;;;;;;;;;6.98;77.50;100026.23;106293;1259;61310;-83
2023/11/01 03:17:34;;;;;;;;;;;;;;;7.07;77.37;100024.58;106155;1258;124708;-85
2023/11/01 03:20:02;;;;;;;;;;;;;;;7.14;77.17;100025.83;106325;1259;74694;-85
2023/11/01 03:22:29;;;;;;;;;;;;;;;7.21;76.92;100030.20;106389;1258;125287;-85
2023/11/01 03:24:56;;;;;;;;;;;;;;;7.28;76.87;100031.77;106487;1259;72077;-83
2023/11/01 03:27:22;;;;;;;;;;;;;;;7.35;76.86;100033.70;106393;1259;61270;-83
2023/11/01 03:29:50;;;;;;;;;;;;;;;7.41;76.65;100034.38;106297;1259;125011;-84
2023/11/01 03:32:16;;;;;;;;;;;;;;;7.45;76.47;100035.34;106257;1261;74649;-86
2023/11/01 03:34:43;;;;;;;;;;;;;;;7.49;76.35;100039.65;106154;1260;124041;-85
2023/11/01 03:37:09;;;;;;;;;;;;;;;7.53;76.22;100045.88;106243;1259;71396;-85
2023/11/01 03:39:36;;;;;;;;;;;;;;;7.55;76.21;100048.55;106240;1259;61208;-85
2023/11/01 03:42:04;;;;;;;;;;;;;;;7.54;75.90;100054.45;106229;1260;123903;-85
2023/11/01 03:44:32;;;;;;;;;;;;;;;7.52;75.77;100060.53;106226;1259;74690;-85
2023/11/01 03:46:59;;;;;;;;;;;;;;;7.50;75.73;100067.10;106235;1259;124115;-85
2023/11/01 03:49:29;;;;;;;;;;;;;;;7.52;75.78;100067.32;106217;1264;72695;-85
2023/11/01 03:51:59;;;;;;;;;;;;;;;7.51;75.72;100075.34;106124;1260;124450;-85
2023/11/01 03:54:26;;;;;;;;;;;;;;;7.50;75.72;100079.67;106366;1258;61193;-85
2023/11/01 03:56:52;;;;;;;;;;;;;;;7.51;75.65;100086.66;106318;1259;75164;-85
2023/11/01 03:59:19;;;;;;;;;;;;;;;7.50;75.57;100086.82;106186;1259;124785;-86
2023/11/01 04:01:46;;;;;;;;;;;;;;;7.51;75.66;100093.67;106196;1264;71824;-86
2023/11/01 04:04:12;;;;;;;;;;;;;;;7.52;75.68;100097.53;106162;1262;125322;-86
2023/11/01 04:06:39;;;;;;;;;;;;;;;7.52;75.55;100101.72;106231;1259;61343;-85
2023/11/01 04:09:10;;;;;;;;;;;;;;;7.52;75.34;100102.41;106385;1262;74499;-85
2023/11/01 04:11:36;;;;;;;;;;;;;;;7.53;75.32;100109.08;106236;1259;124719;-85
2023/11/01 04:14:03;;;;;;;;;;;;;;;7.57;75.45;100110.58;106214;1259;72014;-85
2023/11/01 04:16:30;;;;;;;;;;;;;;;7.57;75.27;100116.34;106178;1259;124876;-85
2023/11/01 04:18:56;;;;;;;;;;;;;;;7.54;75.10;100122.73;106369;1262;61174;-82
2023/11/01 04:21:23;;;;;;;;;;;;;;;7.51;74.94;100126.66;106374;1262;73964;-83
2023/11/01 04:23:51;;;;;;;;;;;;;;;7.49;74.98;100129.02;106178;1262;125163;-82
2023/11/01 04:26:19;;;;;;;;;;;;;;;7.47;74.91;100131.61;106328;1260;72719;-82
2023/11/01 04:28:45;;;;;;;;;;;;;;;7.44;74.84;100136.77;106151;1258;125252;-82
2023/11/01 04:31:12;;;;;;;;;;;;;;;7.41;74.68;100132.67;106347;1259;61440;-83
2023/11/01 04:33:38;;;;;;;;;;;;;;;7.36;74.53;100137.24;106275;1265;73422;-82
2023/11/01 04:36:08;;;;;;;;;;;;;;;7.31;74.43;100137.44;106141;1259;124898;-82
2023/11/01 04:38:36;;;;;;;;;;;;;;;7.27;74.43;100139.58;106272;1257;72889;-82
2023/11/01 04:41:03;;;;;;;;;;;;;;;7.21;74.48;100143.45;106195;1258;124165;-82
2023/11/01 04:43:29;;;;;;;;;;;;;;;7.12;74.30;100141.27;106348;1259;61263;-82
2023/11/01 04:45:56;;;;;;;;;;;;;;;6.99;74.20;100148.90;106108;1258;124543;-82
2023/11/01 04:48:23;;;;;;;;;;;;;;;6.83;74.06;100154.88;106303;1260;66092;-84
2023/11/01 04:50:49;;;;;;;;;;;;;;;6.64;74.00;100148.56;106240;1259;71475;-84
2023/11/01 04:53:16;;;;;;;;;;;;;;;6.46;74.07;100153.90;106234;1262;124345;-84
2023/11/01 04:55:42;;;;;;;;;;;;;;;6.31;74.21;100158.14;106411;1258;61250;-85
2023/11/01 04:58:09;;;;;;;;;;;;;;;6.21;74.51;100162.19;106149;1259;126015;-84
2023/11/01 05:00:36;;;;;;;;;;;;;;;6.14;74.62;100161.08;106277;1259;61371;-85
2023/11/01 05:03:02;;;;;;;;;;;;;;;6.09;74.80;100157.05;106217;1259;71458;-85
2023/11/01 05:05:31;;;;;;;;;;;;;;;6.06;75.03;100163.05;106146;1264;124750;-85
2023/11/01 05:07:58;;;;;;;;;;;;;;;6.04;75.11;100162.82;106295;1258;60298;-85
2023/11/01 05:10:25;;;;;;;;;;;;;;;6.02;75.14;100161.89;106158;1265;124391;-85
2023/11/01 05:12:51;;;;;;;;;;;;;;;6.01;75.27;100159.75;106320;1262;66292;-85
2023/11/01 05:15:18;;;;;;;;;;;;;;;6.03;75.33;100162.98;106446;1262;72705;-84
2023/11/01 05:17:44;;;;;;;;;;;;;;;6.05;75.41;100169.48;106302;1259;123926;-85
2023/11/01 05:20:11;;;;;;;;;;;;;;;6.09;75.45;100174.84;106488;1262;61364;-85
2023/11/01 05:22:38;;;;;;;;;;;;;;;6.14;75.50;100177.44;106358;1258;124208;-85
2023/11/01 05:25:13;;;;;;;;;;;;;;;6.16;75.51;100185.68;106443;1259;64696;-85
2023/11/01 05:27:40;;;;;;;;;;;;;;;6.20;75.49;100195.04;106311;1261;72437;-84
2023/11/01 05:30:08;;;;;;;;;;;;;;;6.24;75.50;100197.63;106231;1263;123927;-85
2023/11/01 05:32:35;;;;;;;;;;;;;;;6.28;75.57;100201.59;106233;1258;61364;-85
2023/11/01 05:35:01;;;;;;;;;;;;;;;6.32;75.47;100205.23;106183;1259;124293;-85
2023/11/01 05:37:28;;;;;;;;;;;;;;;6.38;75.58;100213.97;106366;1262;66359;-85
2023/11/01 05:39:54;;;;;;;;;;;;;;;6.45;75.55;100209.11;106114;1262;124947;-85
2023/11/01 05:42:21;;;;;;;;;;;;;;;6.50;75.53;100209.81;106231;1258;61295;-85
2023/11/01 05:44:47;;;;;;;;;;;;;;;6.55;75.48;100215.20;106273;1259;61189;-85
2023/11/01 05:47:14;;;;;;;;;;;;;;;6.59;75.43;100217.27;106229;1262;124910;-86
2023/11/01 05:49:40;;;;;;;;;;;;;;;6.65;75.34;100216.59;106286;1262;63965;-86
2023/11/01 05:52:07;;;;;;;;;;;;;;;6.70;75.30;100221.62;106213;1260;125063;-85
2023/11/01 05:54:34;;;;;;;;;;;;;;;6.75;75.16;100223.69;106180;1259;61386;-86
2023/11/01 05:57:01;;;;;;;;;;;;;;;6.81;74.91;100236.97;106354;1258;59363;-86
2023/11/01 05:59:28;;;;;;;;;;;;;;;6.88;75.06;100242.77;106099;1262;124960;-85
2023/11/01 06:01:55;;;;;;;;;;;;;;;6.95;75.02;100251.53;106339;1259;66333;-82
2023/11/01 06:04:21;;;;;;;;;;;;;;;7.02;75.00;100259.43;106181;1264;125400;-82
2023/11/01 06:06:48;;;;;;;;;;;;;;;7.11;75.00;100259.86;106371;1260;61181;-82
2023/11/01 06:09:19;;;;;;;;;;;;;;;7.17;74.73;100257.96;106384;1259;61292;-83
2023/11/01 06:11:46;;;;;;;;;;;;;;;7.24;74.78;100264.81;106218;1258;125203;-83
2023/11/01 06:14:12;;;;;;;;;;;;;;;7.29;74.78;100267.77;106350;1263;65478;-83
2023/11/01 06:16:39;;;;;;;;;;;;;;;7.36;74.61;100274.80;106221;1259;125012;-83
2023/11/01 06:19:06;;;;;;;;;;;;;;;7.43;74.57;100274.63;106185;1265;60063;-82
2023/11/01 06:21:32;;;;;;;;;;;;;;;7.48;74.45;100275.66;106286;1261;61363;-83
2023/11/01 06:23:59;;;;;;;;;;;;;;;7.52;74.38;100281.02;106293;1259;125367;-83
2023/11/01 06:26:25;;;;;;;;;;;;;;;7.57;74.33;100289.04;106434;1259;64693;-82
2023/11/01 06:28:52;;;;;;;;;;;;;;;7.62;74.20;100295.63;106304;1260;124332;-83
2023/11/01 06:31:20;;;;;;;;;;;;;;;7.67;74.13;100299.59;106433;1259;61295;-82
2023/11/01 06:33:47;;;;;;;;;;;;;;;7.70;74.05;100304.58;106355;1262;124538;-83
2023/11/01 06:36:13;;;;;;;;;;;;;;;7.74;74.10;100308.04;106266;1259;74675;-83
2023/11/01 06:38:40;;;;;;;;;;;;;;;7.80;74.05;100304.00;106387;1259;66727;-84
2023/11/01 06:41:07;;;;;;;;;;;;;;;7.82;73.92;100304.43;106224;1262;124212;-83
2023/11/01 06:43:33;;;;;;;;;;;;;;;7.85;73.95;100305.73;106501;1258;61355;-81
2023/11/01 06:46:00;;;;;;;;;;;;;;;7.88;73.84;100304.25;106440;1258;125051;-82
2023/11/01 06:48:26;;;;;;;;;;;;;;;7.91;73.70;100312.02;106359;1262;74683;-82
2023/11/01 06:50:53;;;;;;;;;;;;;;;7.93;73.64;100319.44;106365;1260;66101;-84
2023/11/01 06:53:20;;;;;;;;;;;;;;;7.94;73.51;100320.66;106144;1259;124211;-84
2023/11/01 06:55:47;;;;;;;;;;;;;;;7.95;73.51;100328.90;106319;1259;61363;-83
2023/11/01 06:58:13;;;;;;;;;;;;;;;7.97;73.40;100330.89;106304;1262;124708;-83
2023/11/01 07:00:41;;;;;;;;;;;;;;;7.97;73.34;100336.30;106318;1259;73465;-84
2023/11/01 07:03:07;;;;;;;;;;;;;;;7.98;73.20;100338.61;106376;1260;65805;-84
2023/11/01 07:05:35;;;;;;;;;;;;;;;8.00;73.17;100336.92;106111;1259;123943;-84
2023/11/01 07:08:02;;;;;;;;;;;;;;;8.03;73.16;100338.38;106253;1259;61254;-82
2023/11/01 07:10:28;;;;;;;;;;;;;;;8.04;73.04;100342.79;106120;1260;123469;-83
2023/11/01 07:12:55;;;;;;;;;;;;;;;8.07;73.05;100337.96;106403;1262;73456;-83
2023/11/01 07:15:21;;;;;;;;;;;;;;;8.11;72.95;100340.20;106406;1260;64991;-83
2023/11/01 07:17:48;;;;;;;;;;;;;;;8.15;72.95;100343.98;106252;1265;125242;-83
2023/11/01 07:20:16;;;;;;;;;;;;;;;8.16;72.80;100347.66;106415;1258;61343;-83
2023/11/01 07:22:43;;;;;;;;;;;;;;;8.19;72.73;100344.08;106159;1262;125889;-84
2023/11/01 07:25:09;;;;;;;;;;;;;;;8.24;72.77;100345.10;106246;1263;73751;-84
2023/11/01 07:27:36;;;;;;;;;;;;;;;8.30;72.62;100345.27;106361;1259;66479;-84
2023/11/01 07:30:03;;;;;;;;;;;;;;;8.35;72.65;100351.50;106201;1259;124898;-84
2023/11/01 07:32:29;;;;;;;;;;;;;;;8.42;72.63;100357.48;106347;1258;59281;-84
2023/11/01 07:34:56;;;;;;;;;;;;;;;8.48;72.48;100349.98;106231;1260;125284;-84
2023/11/01 07:37:24;;;;;;;;;;;;;;;8.52;72.21;100350.25;106380;1260;74689;-84
2023/11/01 07:39:50;;;;;;;;;;;;;;;8.57;72.12;100355.29;106256;1260;124533;-84
2023/11/01 07:42:17;;;;;;;;;;;;;;;8.64;72.10;100360.37;106341;1262;71426;-84
2023/11/01 07:44:43;;;;;;;;;;;;;;;8.66;71.97;100359.04;106317;1260;61212;-86
2023/11/01 07:47:10;;;;;;;;;;;;;;;8.68;71.93;100358.02;106446;1258;124117;-86
2023/11/01 07:49:37;;;;;;;;;;;;;;;8.72;71.95;100363.21;106421;1257;73330;-86
2023/11/01 07:52:04;;;;;;;;;;;;;;;8.74;71.87;100365.72;106240;1259;124421;-85
2023/11/01 07:54:37;;;;;;;;;;;;;;;8.76;71.93;100367.52;106332;1261;72691;-85
2023/11/01 07:57:04;;;;;;;;;;;;;;;8.79;71.82;100370.20;106299;1259;61489;-87
2023/11/01 07:59:30;;;;;;;;;;;;;;;8.79;71.79;100370.75;106178;1262;124280;-87
2023/11/01 08:01:57;;;;;;;;;;;;;;;8.82;71.73;100370.98;106272;1259;73460;-85
2023/11/01 08:04:23;;;;;;;;;;;;;;;8.82;71.65;100370.98;106313;1259;124900;-83
2023/11/01 08:06:50;;;;;;;;;;;;;;;8.83;71.79;100374.88;106355;1262;72784;-83
2023/11/01 08:09:17;;;;;;;;;;;;;;;8.87;71.82;100373.05;106543;1262;61354;-83
2023/11/01 08:11:43;;;;;;;;;;;;;;;8.92;71.76;100374.75;106298;1262;124888;-84
2023/11/01 08:14:10;;;;;;;;;;;;;;;8.94;71.81;100377.95;106467;1259;74763;-85
2023/11/01 08:16:36;;;;;;;;;;;;;;;8.98;71.80;100379.27;106182;1259;124309;-84
2023/11/01 08:19:03;;;;;;;;;;;;;;;9.00;71.67;100378.98;106357;1262;71388;-83
2023/11/01 08:21:32;;;;;;;;;;;;;;;9.01;71.43;100380.57;106250;1258;59411;-87
2023/11/01 08:23:59;;;;;;;;;;;;;;;9.02;71.34;100385.49;106390;1259;124129;-87
2023/11/01 08:26:26;;;;;;;;;;;;;;;9.06;71.33;100386.13;106392;1262;74649;-86
2023/11/01 08:28:52;;;;;;;;;;;;;;;9.07;71.22;100387.20;106321;1262;124190;-87
2023/11/01 08:31:19;;;;;;;;;;;;;;;9.09;71.12;100385.69;106328;1259;72698;-87
2023/11/01 08:33:46;;;;;;;;;;;;;;;9.09;70.98;100389.20;106611;1260;61130;-86
2023/11/01 08:36:12;;;;;;;;;;;;;;;9.11;71.03;100389.76;106430;1258;60659;-85
2023/11/01 08:38:39;;;;;;;;;;;;;;;9.11;70.84;100394.30;106281;1258;72704;-87
2023/11/01 08:41:06;;;;;;;;;;;;;;;9.13;70.98;100395.05;106202;1263;124805;-87
2023/11/01 08:43:32;;;;;;;;;;;;;;;9.18;70.99;100401.11;106318;1262;73166;-86
2023/11/01 08:45:59;;;;;;;;;;;;;;;9.21;71.00;100410.30;106282;1259;124985;-91
2023/11/01 08:48:26;;;;;;;;;;;;;;;9.23;70.83;100414.38;106274;1259;61308;-87
2023/11/01 08:50:53;;;;;;;;;;;;;;;9.21;70.77;100420.65;106283;1259;74696;-87
2023/11/01 08:53:19;;;;;;;;;;;;;;;9.24;70.93;100431.23;106134;1264;125439;-85
2023/11/01 08:55:46;;;;;;;;;;;;;;;9.27;70.79;100434.46;106131;1261;71225;-86
2023/11/01 08:58:13;;;;;;;;;;;;;;;9.30;70.76;100434.17;106122;1263;125262;-86
2023/11/01 09:00:39;;;;;;;;;;;;;;;9.37;70.88;100441.17;106535;1263;62868;-86
2023/11/01 09:03:06;;;;;;;;;;;;;;;9.42;70.73;100442.16;106457;1261;73235;-86
2023/11/01 09:05:33;;;;;;;;;;;;;;;9.46;70.54;100441.73;106338;1263;125348;-82
2023/11/01 09:08:00;;;;;;;;;;;;;;;9.48;70.39;100444.09;106250;1265;73694;-84
2023/11/01 09:10:26;;;;;;;;;;;;;;;9.50;70.39;100447.61;106242;1263;124381;-85
2023/11/01 09:12:53;;;;;;;;;;;;;;;9.54;70.38;100448.96;106452;1264;61204;-86
2023/11/01 09:15:19;;;;;;;;;;;;;;;9.58;70.00;100449.74;106330;1260;74350;-85
2023/11/01 09:17:46;;;;;;;;;;;;;;;9.58;69.94;100453.92;106326;1257;124469;-85
2023/11/01 09:20:13;;;;;;;;;;;;;;;9.57;69.73;100454.63;106203;1263;187485;-85
2023/11/01 09:22:40;;;;;;;;;;;;;;;9.57;69.71;100459.70;106261;1264;124474;-87
2023/11/01 09:25:08;;;;;;;;;;;;;;;9.59;69.60;100461.50;106515;1262;61343;-86
2023/11/01 09:27:35;;;;;;;;;;;;;;;9.62;69.55;100465.96;106303;1264;74592;-86
2023/11/01 09:30:04;;;;;;;;;;;;;;;9.67;69.51;100466.41;106385;1263;124139;-86
2023/11/01 09:32:31;;;;;;;;;;;;;;;9.71;69.32;100469.16;106339;1261;71784;-83
2023/11/01 09:34:58;;;;;;;;;;;;;;;9.74;69.20;100471.16;106247;1257;124343;-83
2023/11/01 09:37:25;;;;;;;;;;;;;;;9.75;69.20;100477.66;106385;1257;61465;-86
2023/11/01 09:39:51;;;;;;;;;;;;;;;9.78;69.16;100480.89;106288;1257;124321;-86
2023/11/01 09:42:20;;;;;;;;;;;;;;;9.80;69.00;100480.40;106536;1259;66324;-85
2023/11/01 09:44:49;;;;;;;;;;;;;;;9.84;68.85;100484.71;106449;1266;71828;-85
2023/11/01 09:47:16;;;;;;;;;;;;;;;9.85;68.74;100485.79;106439;1263;124668;-86
2023/11/01 09:49:43;;;;;;;;;;;;;;;9.84;68.34;100486.81;106316;1260;61238;-87
2023/11/01 09:52:10;;;;;;;;;;;;;;;9.79;68.12;100488.46;106396;1261;124508;-88
2023/11/01 09:54:37;;;;;;;;;;;;;;;9.78;67.86;100488.40;106452;1260;64912;-87
2023/11/01 09:57:04;;;;;;;;;;;;;;;9.73;67.60;100486.90;106524;1263;72699;-87
2023/11/01 09:59:33;;;;;;;;;;;;;;;9.69;67.52;100492.95;106251;1258;124433;-88
2023/11/01 10:02:00;;;;;;;;;;;;;;;9.68;67.44;100493.77;106765;1259;60481;-87
2023/11/01 10:04:27;;;;;;;;;;;;;;;9.65;67.22;100491.80;106291;1260;124347;-87
2023/11/01 10:06:55;;;;;;;;;;;;;;;9.67;67.45;100492.37;106233;1265;66292;-87
2023/11/01 10:09:21;;;;;;;;;;;;;;;9.73;67.50;100494.78;106415;1262;71396;-86
2023/11/01 10:11:48;;;;;;;;;;;;;;;9.73;66.85;100500.91;106251;1260;124481;-87
2023/11/01 10:14:33;;;;;;;;;;;;;;;9.64;66.62;100499.48;106449;1263;61286;-86
2023/11/01 10:16:59;;;;;;;;;;;;;;;9.59;66.49;100501.62;106325;1258;123122;-86
2023/11/01 10:19:26;;;;;;;;;;;;;;;9.62;66.65;100498.89;106329;1260;65129;-87
2023/11/01 10:21:53;;;;;;;;;;;;;;;9.65;66.49;100503.18;106143;1265;124535;-87
2023/11/01 10:24:23;;;;;;;;;;;;;;;9.66;66.17;100503.19;106414;1264;61299;-87
2023/11/01 10:26:50;;;;;;;;;;;;;;;9.65;66.07;100498.25;106332;1263;61709;-87
2023/11/01 10:29:17;;;;;;;;;;;;;;;9.68;66.27;100496.92;106193;1261;124409;-87
2023/11/01 10:31:51;;;;;;;;;;;;;;;9.73;66.14;100495.66;106356;1261;66251;-87
2023/11/01 10:34:17;;;;;;;;;;;;;;;9.81;66.35;100493.55;106311;1265;124463;-87
2023/11/01 10:36:53;;;;;;;;;;;;;;;9.89;66.08;100495.35;106578;1262;61393;-87
2023/11/01 10:39:21;;;;;;;;;;;;;;;9.97;66.30;100497.27;106394;1263;61172;-87
2023/11/01 10:41:48;;;;;;;;;;;;;;;10.03;66.02;100495.30;106444;1259;124584;-85
2023/11/01 10:44:15;;;;;;;;;;;;;;;10.07;66.07;100494.00;106184;1266;64935;-87
2023/11/01 10:46:42;;;;;;;;;;;;;;;10.15;66.09;100497.69;106101;1266;124784;-86
2023/11/01 10:49:09;;;;;;;;;;;;;;;10.20;66.18;100502.20;106225;1264;61377;-86
2023/11/01 10:51:36;;;;;;;;;;;;;;;10.26;65.81;100500.05;106372;1260;59627;-84
2023/11/01 10:54:03;;;;;;;;;;;;;;;10.29;65.75;100501.68;106080;1266;125541;-75
2023/11/01 10:56:29;;;;;;;;;;;;;;;10.31;65.62;100497.22;105583;1261;65084;-82
2023/11/01 10:59:16;;;;;;;;;;;;;;;10.36;65.59;100495.19;105464;1266;124897;-75
2023/11/01 11:02:07;;;;;;;;;;;;;;;10.45;65.48;100492.42;105559;1264;61266;-83
2023/11/01 11:04:40;;;;;;;;;;;;;;;10.55;65.16;100492.97;105582;1267;124465;-90
2023/11/01 11:07:20;;;;;;;;;;;;;;;10.64;65.21;100499.83;105628;1267;73432;-88
2023/11/01 11:09:47;;;;;;;;;;;;;;;10.69;64.70;100502.40;105847;1266;63923;-89
2023/11/01 11:12:19;;;;;;;;;;;;;;;10.74;64.58;100508.80;105654;1268;71528;-90
2023/11/01 11:14:50;;;;;;;;;;;;;;;10.79;64.45;100509.44;105676;1271;61709;-90
2023/11/01 11:17:18;;;;;;;;;;;;;;;10.87;64.53;100509.59;105606;1269;124381;-89
2023/11/01 11:20:03;;;;;;;;;;;;;;;10.95;64.19;100514.14;105614;1272;74451;-88
2023/11/01 11:22:49;;;;;;;;;;;;;;;11.01;64.14;100518.82;105714;1266;124654;-87
2023/11/01 11:25:34;;;;;;;;;;;;;;;11.07;64.07;100520.70;105823;1267;71434;-87
2023/11/01 11:28:02;;;;;;;;;;;;;;;11.11;63.93;100519.19;105587;1267;124915;-87
2023/11/01 11:30:44;;;;;;;;;;;;;;;11.13;63.82;100520.64;105743;1273;61304;-87
2023/11/01 11:33:11;;;;;;;;;;;;;;;11.16;63.61;100523.52;105622;1265;73714;-88
2023/11/01 11:35:38;;;;;;;;;;;;;;;11.16;63.35;100524.20;105745;1266;124470;-89
2023/11/01 11:38:23;;;;;;;;;;;;;;;11.16;63.09;100526.48;105719;1270;73012;-89
2023/11/01 11:41:10;;;;;;;;;;;;;;;11.15;62.99;100526.11;105828;1267;124467;-87
2023/11/01 11:43:56;;;;;;;;;;;;;;;11.19;62.95;100522.68;106402;1263;61279;-91
2023/11/01 11:46:40;;;;;;;;;;;;;;;11.17;62.68;100519.48;106155;1261;124749;-88
2023/11/01 11:51:49;;;;;;;;;;;;;;;11.24;62.73;100513.98;106197;1263;124701;-86
2023/11/01 11:54:16;;;;;;;;;;;;;;;11.30;62.78;100514.45;106359;1260;61390;-88
2023/11/01 11:56:43;;;;;;;;;;;;;;;11.34;62.59;100512.42;106197;1260;61308;-84
2023/11/01 11:59:10;;;;;;;;;;;;;;;11.37;62.29;100510.18;106009;1260;124976;-87
2023/11/01 12:01:38;;;;;;;;;;;;;;;11.32;62.09;100509.73;106199;1264;65169;-87
2023/11/01 12:04:04;;;;;;;;;;;;;;;11.26;61.93;100507.55;106206;1263;124550;-88
2023/11/01 12:06:39;;;;;;;;;;;;;;;11.19;61.76;100511.96;106635;1261;61339;-88
2023/11/01 12:09:14;;;;;;;;;;;;;;;11.19;61.87;100516.54;106588;1260;61235;-85
2023/11/01 12:11:40;;;;;;;;;;;;;;;11.19;61.93;100520.03;106200;1258;124353;-84
2023/11/01 12:14:07;;;;;;;;;;;;;;;11.20;61.72;100522.35;106213;1264;65564;-85
2023/11/01 12:16:33;;;;;;;;;;;;;;;11.13;61.55;100522.73;106365;1259;124360;-85
2023/11/01 12:19:07;;;;;;;;;;;;;;;11.02;61.37;100524.98;106739;1265;61466;-85
2023/11/01 12:21:33;;;;;;;;;;;;;;;10.91;61.39;100522.14;106775;1263;61287;-85
2023/11/01 12:24:00;;;;;;;;;;;;;;;10.82;61.29;100521.08;106486;1263;124467;-85
2023/11/01 12:26:27;;;;;;;;;;;;;;;10.73;61.28;100523.87;106542;1262;66562;-86
2023/11/01 12:28:54;;;;;;;;;;;;;;;10.63;61.23;100523.33;106515;1261;125194;-86
2023/11/01 12:31:21;;;;;;;;;;;;;;;10.55;60.94;100514.38;106517;1262;61269;-86
2023/11/01 12:33:47;;;;;;;;;;;;;;;10.39;60.80;100512.10;106111;1266;124482;-85
2023/11/01 12:36:27;;;;;;;;;;;;;;;10.28;61.18;100506.93;106367;1263;74712;-84
2023/11/01 12:38:54;;;;;;;;;;;;;;;10.19;61.16;100506.73;106412;1261;66288;-84